Abu Dhabi International Airport
OMAA : now visible

Airfield :











YOU CAN JOIN US ON...

 
LOGIN :

Register | Disclaimer

   EN    FR    IT 

 









Legend :    VFR   Marginal VFR   IFR   Intensive IFR   Very Intensive IFR
Visi :
Ceiling :
>= 8 km
>= 3000ft
5 to 8 km
1000 to 3000 ft
1500m to 5 km
500 to 1000 ft
800 to 1500m
200 to 500 ft
< 800m
< 200 ft
Symbols :   Thunderstorms  Fog  Heavy snow  Heavy precipitations  Wind > 20 kt






- Airport Elevation : 88 ft
- IATA code : AUH


OMAA - Abu Dhabi International

CURRENT METAR :
  • 241001Z 31011KT CAVOK 41/17 Q1003 NOSIG

EXPIRED METARs :
  • 241000Z VRB02KT CAVOK 43/04 Q1003 BECMG 34010KT
  • 240900Z 06004KT 310V110 CAVOK 42/05 Q1003 BECMG 34010KT
  • 240800Z VRB04KT CAVOK 41/04 Q1004 NOSIG

TAF TAF OMAA
Valid from the 24 at 06:00 until the 25 at 12:00 UTC


240552Z 2406/2512 13009KT 8000 NSC
BECMG 2410/2412 34012KT
BECMG 2416/2418 07006KT
PROB40 2422/2504 4000 HZ
PROB30 2423/2501 1500 BR BKN003
BECMG 2501/2503 14010KT
BECMG 2510/2512 33011KT
OMAE FIR / Asia



MET'MAP, your aeronautical weather chart ! - Copyright ORBIFLY December 2007 - Disclaimer

ORBIFLY MET'MAP TEAM :

Programming & Development : Alexandra Zaïnal
Concept & original design : Baudouin d'Aumeries
Assistance for programming : Marc-Olivier Méhu
Technical & hardware support : Manuel Goepfert

Contact : metmap@orbifly.com




SOURCES & CREDITS :

   NOAA       Earth
Advisory